Terminal Aerodrome Forecast
Issued by NWS Shreveport, LA

Home | Current Version | Previous Version | Text Only | Print | Product List | Glossary On
Versions: 1 2 3 4 5 6 7 8 9 10 11 12
000
FTUS44 KSHV 281700
TAFGGG
TAF
KGGG 281740Z 2818/2918 18015KT P6SM SKC
     FM290300 18010KT P6SM SCT250
     FM291200 23007KT P6SM SCT250
     FM291500 29008KT P6SM SCT250=

USA.gov is the U.S. government's official web portal to all federal, state and local government web resources and services.